Polonia International Airport
WIMM : now visible

Airfield :











YOU CAN JOIN US ON...

 
LOGIN :

Register | Disclaimer

   EN    FR    IT 

 









Legend :    VFR   Marginal VFR   IFR   Intensive IFR   Very Intensive IFR
Visi :
Ceiling :
>= 8 km
>= 3000ft
5 to 8 km
1000 to 3000 ft
1500m to 5 km
500 to 1000 ft
800 to 1500m
200 to 500 ft
< 800m
< 200 ft
Symbols :   Thunderstorms  Fog  Heavy snow  Heavy precipitations  Wind > 20 kt






- Airport Elevation : 114 ft
- IATA code : MES


WIMM - Polonia International

CURRENT METAR :
  • 031300Z 30010KT 240V340 6000 FEW016CB BKN017 27/26 Q1008 NOSIG RMK CB TO SW

EXPIRED METARs :
  • 031230Z 31007KT 240V340 9999 FEW016CB BKN017 27/26 Q1008 CB TO SW NOSIG
  • 031200Z 28005KT 240V340 8000 FEW016CB BKN017 27/26 Q1007 CB TO SW NOSIG
  • 031130Z 32007KT 240V340 8000 FEW016CB BKN017 27/25 Q1007 CB TO SW NOSIG
  • 031100Z 31010KT 240V340 9999 FEW016TCU SCT017 28/26 Q1006 TEMPO FM1130 TL1300 VRB15KT 3000 TSRA TCU TO S NOSIG
  • 031030Z 33010KT 240V340 9999 SCT017 28/25 Q1006 NOSIG

TAF TAF WIMM
Valid from the 03 at 12:00 until the 04 at 12:00 UTC


031100Z 0312/0412 VRB12KT 4000 BR FEW016CB BKN017
TEMPO 0312/0316 TSRA
BECMG 0402/0404 36010KT 9999 NSW SCT020
WIIF FIR / Asia



MET'MAP, your aeronautical weather chart ! - Copyright ORBIFLY December 2007 - Disclaimer

ORBIFLY MET'MAP TEAM :

Programming & Development : Alexandra Zaïnal
Concept & original design : Baudouin d'Aumeries
Assistance for programming : Marc-Olivier Méhu
Technical & hardware support : Manuel Goepfert

Contact : metmap@orbifly.com




SOURCES & CREDITS :

   NOAA       Earth
Advisory